sensor_id;sensor_type;location;lat;lon;timestamp;pressure;altitude;pressure_sealevel;temperature;humidity
16580;BME280;8402;51.466;6.806;2023-11-19T00:01:10;100612.91;;;11.53;100.00
16580;BME280;8402;51.466;6.806;2023-11-19T00:03:40;100632.41;;;11.55;100.00
16580;BME280;8402;51.466;6.806;2023-11-19T00:06:10;100630.97;;;11.57;100.00
16580;BME280;8402;51.466;6.806;2023-11-19T00:08:43;100622.50;;;11.59;100.00
16580;BME280;8402;51.466;6.806;2023-11-19T00:11:13;100629.19;;;11.62;100.00
16580;BME280;8402;51.466;6.806;2023-11-19T00:13:43;100634.28;;;11.63;100.00
16580;BME280;8402;51.466;6.806;2023-11-19T00:16:13;100630.16;;;11.66;100.00
16580;BME280;8402;51.466;6.806;2023-11-19T00:18:43;100631.09;;;11.70;100.00
16580;BME280;8402;51.466;6.806;2023-11-19T00:21:13;100628.03;;;11.71;100.00
16580;BME280;8402;51.466;6.806;2023-11-19T00:23:45;100626.13;;;11.72;100.00
16580;BME280;8402;51.466;6.806;2023-11-19T00:26:15;100630.91;;;11.75;100.00
16580;BME280;8402;51.466;6.806;2023-11-19T00:28:47;100624.81;;;11.78;100.00
16580;BME280;8402;51.466;6.806;2023-11-19T00:31:17;100621.78;;;11.79;100.00
16580;BME280;8402;51.466;6.806;2023-11-19T00:33:48;100620.50;;;11.85;100.00
16580;BME280;8402;51.466;6.806;2023-11-19T00:36:19;100613.31;;;11.90;100.00
16580;BME280;8402;51.466;6.806;2023-11-19T00:38:53;100596.03;;;11.94;100.00
16580;BME280;8402;51.466;6.806;2023-11-19T00:41:23;100590.72;;;11.98;100.00
16580;BME280;8402;51.466;6.806;2023-11-19T00:43:53;100595.31;;;12.06;100.00
16580;BME280;8402;51.466;6.806;2023-11-19T00:46:23;100593.53;;;12.10;100.00
16580;BME280;8402;51.466;6.806;2023-11-19T00:48:54;100589.53;;;12.16;100.00
16580;BME280;8402;51.466;6.806;2023-11-19T00:51:26;100579.25;;;12.22;100.00
16580;BME280;8402;51.466;6.806;2023-11-19T00:54:00;100575.53;;;12.26;100.00
16580;BME280;8402;51.466;6.806;2023-11-19T00:56:30;100581.94;;;12.30;100.00
16580;BME280;8402;51.466;6.806;2023-11-19T00:59:00;100576.59;;;12.34;100.00
16580;BME280;8402;51.466;6.806;2023-11-19T01:01:30;100575.16;;;12.36;100.00
16580;BME280;8402;51.466;6.806;2023-11-19T01:04:00;100572.91;;;12.38;100.00
16580;BME280;8402;51.466;6.806;2023-11-19T01:06:31;100575.44;;;12.44;100.00
16580;BME280;8402;51.466;6.806;2023-11-19T01:09:04;100577.94;;;12.49;100.00
16580;BME280;8402;51.466;6.806;2023-11-19T01:11:35;100575.03;;;12.54;100.00
16580;BME280;8402;51.466;6.806;2023-11-19T01:14:06;100566.19;;;12.57;100.00
16580;BME280;8402;51.466;6.806;2023-11-19T01:16:36;100568.28;;;12.60;100.00
16580;BME280;8402;51.466;6.806;2023-11-19T01:19:06;100566.00;;;12.62;100.00
16580;BME280;8402;51.466;6.806;2023-11-19T01:21:43;100576.25;;;12.65;100.00
16580;BME280;8402;51.466;6.806;2023-11-19T01:24:16;100575.59;;;12.68;100.00
16580;BME280;8402;51.466;6.806;2023-11-19T01:26:46;100571.72;;;12.69;100.00
16580;BME280;8402;51.466;6.806;2023-11-19T01:29:16;100585.16;;;12.74;100.00
16580;BME280;8402;51.466;6.806;2023-11-19T01:31:47;100580.63;;;12.78;100.00
16580;BME280;8402;51.466;6.806;2023-11-19T01:34:18;100581.44;;;12.79;100.00
16580;BME280;8402;51.466;6.806;2023-11-19T01:36:48;100589.28;;;12.80;100.00
16580;BME280;8402;51.466;6.806;2023-11-19T01:39:20;100585.41;;;12.81;100.00
16580;BME280;8402;51.466;6.806;2023-11-19T01:41:50;100586.31;;;12.85;100.00
16580;BME280;8402;51.466;6.806;2023-11-19T01:44:18;100575.91;;;12.87;100.00
16580;BME280;8402;51.466;6.806;2023-11-19T01:46:47;100554.59;;;12.89;100.00
16580;BME280;8402;51.466;6.806;2023-11-19T01:49:22;100568.66;;;12.91;100.00
16580;BME280;8402;51.466;6.806;2023-11-19T01:51:51;100573.44;;;12.94;100.00
16580;BME280;8402;51.466;6.806;2023-11-19T01:54:24;100566.41;;;12.93;100.00
16580;BME280;8402;51.466;6.806;2023-11-19T01:56:56;100567.31;;;12.98;100.00
16580;BME280;8402;51.466;6.806;2023-11-19T01:59:28;100568.25;;;13.02;100.00
16580;BME280;8402;51.466;6.806;2023-11-19T02:01:57;100562.13;;;13.05;100.00
16580;BME280;8402;51.466;6.806;2023-11-19T02:04:28;100555.91;;;13.04;100.00
16580;BME280;8402;51.466;6.806;2023-11-19T02:06:58;100550.09;;;13.06;100.00
16580;BME280;8402;51.466;6.806;2023-11-19T02:09:31;100534.44;;;13.03;100.00
16580;BME280;8402;51.466;6.806;2023-11-19T02:12:01;100522.88;;;13.06;100.00
16580;BME280;8402;51.466;6.806;2023-11-19T02:14:31;100514.69;;;13.06;100.00
16580;BME280;8402;51.466;6.806;2023-11-19T02:17:01;100515.63;;;13.10;100.00
16580;BME280;8402;51.466;6.806;2023-11-19T02:19:31;100516.44;;;13.10;100.00
16580;BME280;8402;51.466;6.806;2023-11-19T02:22:01;100522.66;;;13.11;100.00
16580;BME280;8402;51.466;6.806;2023-11-19T02:24:35;100513.34;;;13.12;100.00
16580;BME280;8402;51.466;6.806;2023-11-19T02:27:10;100510.97;;;13.10;100.00
16580;BME280;8402;51.466;6.806;2023-11-19T02:29:47;100515.44;;;13.15;100.00
16580;BME280;8402;51.466;6.806;2023-11-19T02:32:17;100517.81;;;13.16;100.00
16580;BME280;8402;51.466;6.806;2023-11-19T02:34:47;100499.97;;;13.19;100.00
16580;BME280;8402;51.466;6.806;2023-11-19T02:37:17;100513.28;;;13.20;100.00
16580;BME280;8402;51.466;6.806;2023-11-19T02:39:47;100517.28;;;13.23;100.00
16580;BME280;8402;51.466;6.806;2023-11-19T02:42:17;100516.16;;;13.24;100.00
16580;BME280;8402;51.466;6.806;2023-11-19T02:44:49;100510.69;;;13.24;100.00
16580;BME280;8402;51.466;6.806;2023-11-19T02:47:19;100507.63;;;13.26;100.00
16580;BME280;8402;51.466;6.806;2023-11-19T02:49:50;100504.47;;;13.24;100.00
16580;BME280;8402;51.466;6.806;2023-11-19T02:52:20;100504.13;;;13.25;100.00
16580;BME280;8402;51.466;6.806;2023-11-19T02:54:51;100503.31;;;13.25;100.00
16580;BME280;8402;51.466;6.806;2023-11-19T02:57:22;100502.06;;;13.22;100.00
16580;BME280;8402;51.466;6.806;2023-11-19T02:59:55;100512.16;;;13.21;100.00
16580;BME280;8402;51.466;6.806;2023-11-19T03:02:26;100497.53;;;13.26;100.00
16580;BME280;8402;51.466;6.806;2023-11-19T03:05:01;100496.38;;;13.27;100.00
16580;BME280;8402;51.466;6.806;2023-11-19T03:07:31;100494.94;;;13.30;100.00
16580;BME280;8402;51.466;6.806;2023-11-19T03:10:01;100506.63;;;13.30;100.00
16580;BME280;8402;51.466;6.806;2023-11-19T03:12:32;100497.78;;;13.33;100.00
16580;BME280;8402;51.466;6.806;2023-11-19T03:15:06;100490.72;;;13.32;100.00
16580;BME280;8402;51.466;6.806;2023-11-19T03:17:38;100475.97;;;13.33;100.00
16580;BME280;8402;51.466;6.806;2023-11-19T03:20:09;100479.16;;;13.35;100.00
16580;BME280;8402;51.466;6.806;2023-11-19T03:22:42;100496.41;;;13.39;100.00
16580;BME280;8402;51.466;6.806;2023-11-19T03:25:12;100494.84;;;13.38;100.00
16580;BME280;8402;51.466;6.806;2023-11-19T03:27:42;100498.69;;;13.37;100.00
16580;BME280;8402;51.466;6.806;2023-11-19T03:30:15;100508.00;;;13.36;100.00
16580;BME280;8402;51.466;6.806;2023-11-19T03:32:45;100489.25;;;13.35;100.00
16580;BME280;8402;51.466;6.806;2023-11-19T03:35:15;100491.88;;;13.31;100.00
16580;BME280;8402;51.466;6.806;2023-11-19T03:37:45;100487.22;;;13.32;100.00
16580;BME280;8402;51.466;6.806;2023-11-19T03:40:15;100493.00;;;13.30;100.00
16580;BME280;8402;51.466;6.806;2023-11-19T03:42:45;100500.25;;;13.26;100.00
16580;BME280;8402;51.466;6.806;2023-11-19T03:45:18;100501.75;;;13.24;100.00
16580;BME280;8402;51.466;6.806;2023-11-19T03:47:48;100502.97;;;13.26;100.00
16580;BME280;8402;51.466;6.806;2023-11-19T03:50:19;100513.88;;;13.26;100.00
16580;BME280;8402;51.466;6.806;2023-11-19T03:52:50;100505.59;;;13.23;100.00
16580;BME280;8402;51.466;6.806;2023-11-19T03:55:19;100508.84;;;13.16;100.00
16580;BME280;8402;51.466;6.806;2023-11-19T03:57:49;100495.66;;;13.18;100.00
16580;BME280;8402;51.466;6.806;2023-11-19T04:00:22;100500.31;;;13.17;100.00
16580;BME280;8402;51.466;6.806;2023-11-19T04:02:55;100510.44;;;13.17;100.00
16580;BME280;8402;51.466;6.806;2023-11-19T04:05:27;100508.59;;;13.09;100.00
16580;BME280;8402;51.466;6.806;2023-11-19T04:07:57;100509.03;;;13.11;100.00
16580;BME280;8402;51.466;6.806;2023-11-19T04:10:27;100505.06;;;13.08;100.00
16580;BME280;8402;51.466;6.806;2023-11-19T04:12:57;100501.56;;;13.08;100.00
16580;BME280;8402;51.466;6.806;2023-11-19T04:15:30;100513.09;;;13.05;100.00
16580;BME280;8402;51.466;6.806;2023-11-19T04:18:00;100505.13;;;13.00;100.00
16580;BME280;8402;51.466;6.806;2023-11-19T04:20:30;100490.28;;;12.97;100.00
16580;BME280;8402;51.466;6.806;2023-11-19T04:23:01;100510.59;;;13.00;100.00
16580;BME280;8402;51.466;6.806;2023-11-19T04:25:31;100518.31;;;12.98;100.00
16580;BME280;8402;51.466;6.806;2023-11-19T04:28:01;100520.56;;;12.95;100.00
16580;BME280;8402;51.466;6.806;2023-11-19T04:30:33;100518.19;;;12.94;100.00
16580;BME280;8402;51.466;6.806;2023-11-19T04:33:04;100522.38;;;12.91;100.00
16580;BME280;8402;51.466;6.806;2023-11-19T04:35:34;100518.72;;;12.87;100.00
16580;BME280;8402;51.466;6.806;2023-11-19T04:38:04;100532.00;;;12.89;100.00
16580;BME280;8402;51.466;6.806;2023-11-19T04:40:34;100540.22;;;13.01;100.00
16580;BME280;8402;51.466;6.806;2023-11-19T04:43:04;100524.78;;;13.05;100.00
16580;BME280;8402;51.466;6.806;2023-11-19T04:45:37;100519.25;;;13.02;100.00
16580;BME280;8402;51.466;6.806;2023-11-19T04:48:06;100519.25;;;13.02;100.00
16580;BME280;8402;51.466;6.806;2023-11-19T04:51:37;67388.69;;;-145.55;100.00
16580;BME280;8402;51.466;6.806;2023-11-19T04:55:06;67388.69;;;-145.55;100.00
16580;BME280;8402;51.466;6.806;2023-11-19T04:58:37;67388.69;;;-145.55;100.00
16580;BME280;8402;51.466;6.806;2023-11-19T05:02:11;67388.69;;;-145.55;100.00
16580;BME280;8402;51.466;6.806;2023-11-19T05:04:49;100519.25;;;13.02;100.00
16580;BME280;8402;51.466;6.806;2023-11-19T05:07:19;100545.53;;;12.98;100.00
16580;BME280;8402;51.466;6.806;2023-11-19T05:09:49;100537.72;;;12.96;100.00
16580;BME280;8402;51.466;6.806;2023-11-19T05:12:19;100546.22;;;12.94;100.00
16580;BME280;8402;51.466;6.806;2023-11-19T05:14:49;100546.88;;;12.91;100.00
16580;BME280;8402;51.466;6.806;2023-11-19T05:17:22;100540.97;;;12.89;100.00
16580;BME280;8402;51.466;6.806;2023-11-19T05:19:52;100537.56;;;12.92;100.00
16580;BME280;8402;51.466;6.806;2023-11-19T05:22:22;100543.94;;;12.97;100.00
16580;BME280;8402;51.466;6.806;2023-11-19T05:24:53;100542.81;;;12.98;100.00
16580;BME280;8402;51.466;6.806;2023-11-19T05:27:23;100551.91;;;13.02;100.00
16580;BME280;8402;51.466;6.806;2023-11-19T05:29:54;100542.63;;;13.03;100.00
16580;BME280;8402;51.466;6.806;2023-11-19T05:32:26;100546.47;;;13.02;100.00
16580;BME280;8402;51.466;6.806;2023-11-19T05:34:56;100538.66;;;13.00;100.00
16580;BME280;8402;51.466;6.806;2023-11-19T05:37:26;100537.16;;;13.03;100.00
16580;BME280;8402;51.466;6.806;2023-11-19T05:39:56;100544.22;;;13.04;100.00
16580;BME280;8402;51.466;6.806;2023-11-19T05:42:27;100540.22;;;13.01;100.00
16580;BME280;8402;51.466;6.806;2023-11-19T05:44:57;100538.66;;;13.00;100.00
16580;BME280;8402;51.466;6.806;2023-11-19T05:47:29;100536.91;;;12.95;100.00
16580;BME280;8402;51.466;6.806;2023-11-19T05:49:59;100540.78;;;12.94;100.00
16580;BME280;8402;51.466;6.806;2023-11-19T05:52:30;100544.63;;;12.93;100.00
16580;BME280;8402;51.466;6.806;2023-11-19T05:55:02;100554.94;;;12.88;100.00
16580;BME280;8402;51.466;6.806;2023-11-19T05:57:37;100535.06;;;12.87;100.00
16580;BME280;8402;51.466;6.806;2023-11-19T06:00:11;100541.31;;;12.88;100.00
16580;BME280;8402;51.466;6.806;2023-11-19T06:02:45;100553.78;;;12.89;100.00
16580;BME280;8402;51.466;6.806;2023-11-19T06:05:15;100552.31;;;12.91;100.00
16580;BME280;8402;51.466;6.806;2023-11-19T06:07:45;100556.53;;;12.89;100.00
16580;BME280;8402;51.466;6.806;2023-11-19T06:10:17;100550.63;;;12.87;100.00
16580;BME280;8402;51.466;6.806;2023-11-19T06:12:47;100543.44;;;12.82;100.00
16580;BME280;8402;51.466;6.806;2023-11-19T06:15:23;100543.44;;;12.82;100.00
16580;BME280;8402;51.466;6.806;2023-11-19T06:17:55;100539.47;;;12.80;100.00
16580;BME280;8402;51.466;6.806;2023-11-19T06:20:27;100542.50;;;12.78;100.00
16580;BME280;8402;51.466;6.806;2023-11-19T06:23:09;100540.91;;;12.77;100.00
16580;BME280;8402;51.466;6.806;2023-11-19T06:25:39;100540.00;;;12.73;100.00
16580;BME280;8402;51.466;6.806;2023-11-19T06:28:10;100546.56;;;12.72;100.00
16580;BME280;8402;51.466;6.806;2023-11-19T06:30:40;100543.38;;;12.70;100.00
16580;BME280;8402;51.466;6.806;2023-11-19T06:33:17;100552.06;;;12.63;100.00
16580;BME280;8402;51.466;6.806;2023-11-19T06:35:47;100550.47;;;12.62;100.00
16580;BME280;8402;51.466;6.806;2023-11-19T06:38:17;100546.97;;;12.62;100.00
16580;BME280;8402;51.466;6.806;2023-11-19T06:40:47;100555.13;;;12.62;100.00
16580;BME280;8402;51.466;6.806;2023-11-19T06:43:20;100553.53;;;12.61;100.00
16580;BME280;8402;51.466;6.806;2023-11-19T06:45:50;100570.81;;;12.65;100.00
16580;BME280;8402;51.466;6.806;2023-11-19T06:48:23;100580.75;;;12.61;100.00
16580;BME280;8402;51.466;6.806;2023-11-19T06:50:53;100576.44;;;12.60;100.00
16580;BME280;8402;51.466;6.806;2023-11-19T06:53:22;100577.56;;;12.59;100.00
16580;BME280;8402;51.466;6.806;2023-11-19T06:55:54;100583.03;;;12.59;100.00
16580;BME280;8402;51.466;6.806;2023-11-19T06:58:24;100585.94;;;12.54;100.00
16580;BME280;8402;51.466;6.806;2023-11-19T07:00:54;100590.44;;;12.50;100.00
16580;BME280;8402;51.466;6.806;2023-11-19T07:03:27;100595.22;;;12.53;100.00
16580;BME280;8402;51.466;6.806;2023-11-19T07:05:57;100590.44;;;12.50;100.00
16580;BME280;8402;51.466;6.806;2023-11-19T07:08:27;100592.69;;;12.48;100.00
16580;BME280;8402;51.466;6.806;2023-11-19T07:10:57;100590.16;;;12.43;100.00
16580;BME280;8402;51.466;6.806;2023-11-19T07:13:27;100595.59;;;12.43;100.00
16580;BME280;8402;51.466;6.806;2023-11-19T07:15:58;100601.38;;;12.41;100.00
16580;BME280;8402;51.466;6.806;2023-11-19T07:18:30;100605.56;;;12.38;100.00
16580;BME280;8402;51.466;6.806;2023-11-19T07:21:02;100598.38;;;12.34;100.00
16580;BME280;8402;51.466;6.806;2023-11-19T07:23:32;100616.44;;;12.38;100.00
16580;BME280;8402;51.466;6.806;2023-11-19T07:26:05;100611.47;;;12.40;100.00
16580;BME280;8402;51.466;6.806;2023-11-19T07:28:39;100620.09;;;12.43;100.00
16580;BME280;8402;51.466;6.806;2023-11-19T07:31:13;100625.84;;;12.41;100.00
16580;BME280;8402;51.466;6.806;2023-11-19T07:33:46;100638.34;;;12.42;100.00
16580;BME280;8402;51.466;6.806;2023-11-19T07:36:16;100642.97;;;12.42;100.00
16580;BME280;8402;51.466;6.806;2023-11-19T07:38:46;100631.19;;;12.37;100.00
16580;BME280;8402;51.466;6.806;2023-11-19T07:41:17;100638.84;;;12.35;100.00
16580;BME280;8402;51.466;6.806;2023-11-19T07:43:47;100637.25;;;12.34;100.00
16580;BME280;8402;51.466;6.806;2023-11-19T07:46:18;100651.66;;;12.35;100.00
16580;BME280;8402;51.466;6.806;2023-11-19T07:48:54;100655.03;;;12.32;100.00
16580;BME280;8402;51.466;6.806;2023-11-19T07:51:24;100643.38;;;12.31;100.00
16580;BME280;8402;51.466;6.806;2023-11-19T07:53:54;100642.56;;;12.31;100.00
16580;BME280;8402;51.466;6.806;2023-11-19T07:56:24;100651.66;;;12.35;100.00
16580;BME280;8402;51.466;6.806;2023-11-19T07:58:54;100662.88;;;12.33;100.00
16580;BME280;8402;51.466;6.806;2023-11-19T08:01:24;100655.16;;;12.35;100.00
16580;BME280;8402;51.466;6.806;2023-11-19T08:03:56;100669.91;;;12.34;100.00
16580;BME280;8402;51.466;6.806;2023-11-19T08:06:29;100676.75;;;12.40;100.00
16580;BME280;8402;51.466;6.806;2023-11-19T08:08:59;100665.25;;;12.44;100.00
16580;BME280;8402;51.466;6.806;2023-11-19T08:11:29;100670.53;;;12.40;100.00
16580;BME280;8402;51.466;6.806;2023-11-19T08:13:59;100666.69;;;12.41;100.00
16580;BME280;8402;51.466;6.806;2023-11-19T08:16:29;100675.19;;;12.39;100.00
16580;BME280;8402;51.466;6.806;2023-11-19T08:19:02;100673.59;;;12.38;100.00
16580;BME280;8402;51.466;6.806;2023-11-19T08:21:32;100670.84;;;12.38;100.00
16580;BME280;8402;51.466;6.806;2023-11-19T08:24:03;100688.31;;;12.37;100.00
16580;BME280;8402;51.466;6.806;2023-11-19T08:26:33;100678.56;;;12.36;100.00
16580;BME280;8402;51.466;6.806;2023-11-19T08:29:03;100681.06;;;12.42;100.00
16580;BME280;8402;51.466;6.806;2023-11-19T08:31:33;100681.56;;;12.44;100.00
16580;BME280;8402;51.466;6.806;2023-11-19T08:34:06;100679.78;;;12.48;100.00
16580;BME280;8402;51.466;6.806;2023-11-19T08:36:36;100672.06;;;12.50;100.00
16580;BME280;8402;51.466;6.806;2023-11-19T08:39:06;100670.47;;;12.49;100.00
16580;BME280;8402;51.466;6.806;2023-11-19T08:41:36;100676.88;;;12.53;100.00
16580;BME280;8402;51.466;6.806;2023-11-19T08:44:08;100684.88;;;12.58;100.00
16580;BME280;8402;51.466;6.806;2023-11-19T08:46:39;100672.16;;;12.62;100.00
16580;BME280;8402;51.466;6.806;2023-11-19T08:49:12;100672.00;;;12.67;100.00
16580;BME280;8402;51.466;6.806;2023-11-19T08:51:41;100681.28;;;12.66;100.00
16580;BME280;8402;51.466;6.806;2023-11-19T08:54:12;100679.03;;;12.68;100.00
16580;BME280;8402;51.466;6.806;2023-11-19T08:56:42;100679.81;;;12.68;100.00
16580;BME280;8402;51.466;6.806;2023-11-19T08:59:12;100683.81;;;12.71;100.00
16580;BME280;8402;51.466;6.806;2023-11-19T09:01:44;100677.56;;;12.71;100.00
16580;BME280;8402;51.466;6.806;2023-11-19T09:04:16;100690.53;;;12.74;100.00
16580;BME280;8402;51.466;6.806;2023-11-19T09:06:49;100694.97;;;12.78;100.00
16580;BME280;8402;51.466;6.806;2023-11-19T09:09:19;100694.97;;;12.78;100.00
16580;BME280;8402;51.466;6.806;2023-11-19T09:11:49;100695.59;;;12.84;100.00
16580;BME280;8402;51.466;6.806;2023-11-19T09:14:22;100687.06;;;12.85;100.00
16580;BME280;8402;51.466;6.806;2023-11-19T09:16:53;100680.66;;;12.90;100.00
16580;BME280;8402;51.466;6.806;2023-11-19T09:19:25;100685.31;;;12.89;100.00
16580;BME280;8402;51.466;6.806;2023-11-19T09:21:55;100688.47;;;12.91;100.00
16580;BME280;8402;51.466;6.806;2023-11-19T09:24:25;100681.25;;;12.95;100.00
16580;BME280;8402;51.466;6.806;2023-11-19T09:26:55;100680.13;;;12.97;100.00
16580;BME280;8402;51.466;6.806;2023-11-19T09:29:27;100679.00;;;12.98;100.00
16580;BME280;8402;51.466;6.806;2023-11-19T09:31:57;100671.75;;;13.02;100.00
16580;BME280;8402;51.466;6.806;2023-11-19T09:34:31;100681.19;;;13.04;100.00
16580;BME280;8402;51.466;6.806;2023-11-19T09:37:01;100677.00;;;13.07;100.00
16580;BME280;8402;51.466;6.806;2023-11-19T09:39:46;100675.06;;;13.07;100.00
16580;BME280;8402;51.466;6.806;2023-11-19T09:42:18;100671.53;;;13.07;100.00
16580;BME280;8402;51.466;6.806;2023-11-19T09:44:48;100680.94;;;13.18;100.00
16580;BME280;8402;51.466;6.806;2023-11-19T09:47:19;100666.81;;;13.25;100.00
16580;BME280;8402;51.466;6.806;2023-11-19T09:49:52;100668.19;;;13.31;100.00
16580;BME280;8402;51.466;6.806;2023-11-19T09:52:25;100674.25;;;13.36;100.00
16580;BME280;8402;51.466;6.806;2023-11-19T09:54:55;100698.78;;;13.36;100.00
16580;BME280;8402;51.466;6.806;2023-11-19T09:57:25;100674.44;;;13.31;100.00
16580;BME280;8402;51.466;6.806;2023-11-19T09:59:56;100679.22;;;13.34;100.00
16580;BME280;8402;51.466;6.806;2023-11-19T10:02:27;100688.66;;;13.37;100.00
16580;BME280;8402;51.466;6.806;2023-11-19T10:05:05;100676.75;;;13.41;100.00
16580;BME280;8402;51.466;6.806;2023-11-19T10:07:37;100671.09;;;13.46;100.00
16580;BME280;8402;51.466;6.806;2023-11-19T10:10:08;100677.00;;;13.48;100.00
16580;BME280;8402;51.466;6.806;2023-11-19T10:12:41;100673.81;;;13.46;100.00
16580;BME280;8402;51.466;6.806;2023-11-19T10:15:22;100672.03;;;13.51;100.00
16580;BME280;8402;51.466;6.806;2023-11-19T10:17:55;100675.00;;;13.58;100.00
16580;BME280;8402;51.466;6.806;2023-11-19T10:20:28;100682.84;;;13.59;100.00
16580;BME280;8402;51.466;6.806;2023-11-19T10:22:58;100684.56;;;13.64;100.00
16580;BME280;8402;51.466;6.806;2023-11-19T10:25:29;100676.63;;;13.71;100.00
16580;BME280;8402;51.466;6.806;2023-11-19T10:27:59;100668.13;;;13.72;100.00
16580;BME280;8402;51.466;6.806;2023-11-19T10:30:30;100672.09;;;13.75;100.00
16580;BME280;8402;51.466;6.806;2023-11-19T10:33:05;100673.25;;;13.74;100.00
16580;BME280;8402;51.466;6.806;2023-11-19T10:35:51;100675.19;;;13.73;100.00
16580;BME280;8402;51.466;6.806;2023-11-19T10:38:25;100673.69;;;13.76;100.00
16580;BME280;8402;51.466;6.806;2023-11-19T10:40:56;100675.97;;;13.74;100.00
16580;BME280;8402;51.466;6.806;2023-11-19T10:43:26;100667.34;;;13.72;100.00
16580;BME280;8402;51.466;6.806;2023-11-19T10:46:11;100664.91;;;13.70;100.00
16580;BME280;8402;51.466;6.806;2023-11-19T10:48:48;100664.72;;;13.75;100.00
16580;BME280;8402;51.466;6.806;2023-11-19T10:51:20;100655.75;;;13.75;100.00
16580;BME280;8402;51.466;6.806;2023-11-19T10:53:51;100654.25;;;13.77;100.00
16580;BME280;8402;51.466;6.806;2023-11-19T10:56:25;100654.41;;;13.81;100.00
16580;BME280;8402;51.466;6.806;2023-11-19T10:58:59;100652.91;;;13.84;100.00
16580;BME280;8402;51.466;6.806;2023-11-19T11:01:48;100656.44;;;13.84;100.00
16580;BME280;8402;51.466;6.806;2023-11-19T11:04:23;100649.19;;;13.88;100.00
16580;BME280;8402;51.466;6.806;2023-11-19T11:06:58;100648.50;;;13.91;100.00
16580;BME280;8402;51.466;6.806;2023-11-19T11:09:31;100649.63;;;13.90;100.00
16580;BME280;8402;51.466;6.806;2023-11-19T11:12:04;100650.09;;;13.92;100.00
16580;BME280;8402;51.466;6.806;2023-11-19T11:14:37;100652.59;;;13.97;100.00
16580;BME280;8402;51.466;6.806;2023-11-19T11:17:09;100648.72;;;13.98;100.00
16580;BME280;8402;51.466;6.806;2023-11-19T11:19:42;100648.88;;;14.02;100.00
16580;BME280;8402;51.466;6.806;2023-11-19T11:22:16;100640.56;;;13.98;100.00
16580;BME280;8402;51.466;6.806;2023-11-19T11:25:11;100654.19;;;13.98;100.00
16580;BME280;8402;51.466;6.806;2023-11-19T11:27:54;100658.53;;;14.12;100.00
16580;BME280;8402;51.466;6.806;2023-11-19T11:30:38;100649.44;;;14.20;100.00
16580;BME280;8402;51.466;6.806;2023-11-19T11:33:20;100643.31;;;14.23;100.00
16580;BME280;8402;51.466;6.806;2023-11-19T11:36:01;100644.34;;;14.30;100.00
16580;BME280;8402;51.466;6.806;2023-11-19T11:38:40;100635.81;;;14.32;100.00
16580;BME280;8402;51.466;6.806;2023-11-19T11:41:19;100640.56;;;14.35;100.00
16580;BME280;8402;51.466;6.806;2023-11-19T11:43:54;100639.91;;;14.38;100.00
16580;BME280;8402;51.466;6.806;2023-11-19T11:46:54;100632.06;;;14.37;100.00
16580;BME280;8402;51.466;6.806;2023-11-19T11:49:28;100625.13;;;14.39;100.00
16580;BME280;8402;51.466;6.806;2023-11-19T11:52:02;100619.75;;;14.43;100.00
16580;BME280;8402;51.466;6.806;2023-11-19T11:54:44;100613.41;;;14.39;100.00
16580;BME280;8402;51.466;6.806;2023-11-19T11:57:16;100613.66;;;14.46;100.00
16580;BME280;8402;51.466;6.806;2023-11-19T11:59:47;100618.53;;;14.52;100.00
16580;BME280;8402;51.466;6.806;2023-11-19T12:02:19;100613.97;;;14.56;100.00
16580;BME280;8402;51.466;6.806;2023-11-19T12:04:50;100620.13;;;14.66;100.00
16580;BME280;8402;51.466;6.806;2023-11-19T12:07:22;100616.69;;;14.69;100.00
16580;BME280;8402;51.466;6.806;2023-11-19T12:10:06;100619.31;;;14.65;100.00
16580;BME280;8402;51.466;6.806;2023-11-19T12:12:39;100615.19;;;14.71;100.00
16580;BME280;8402;51.466;6.806;2023-11-19T12:15:10;100609.28;;;14.69;100.00
16580;BME280;8402;51.466;6.806;2023-11-19T12:17:43;100607.81;;;14.72;100.00
16580;BME280;8402;51.466;6.806;2023-11-19T12:20:18;100602.81;;;14.74;100.00
16580;BME280;8402;51.466;6.806;2023-11-19T12:22:54;100606.31;;;14.74;100.00
16580;BME280;8402;51.466;6.806;2023-11-19T12:25:27;100595.16;;;14.79;100.00
16580;BME280;8402;51.466;6.806;2023-11-19T12:28:00;100592.31;;;14.76;100.00
16580;BME280;8402;51.466;6.806;2023-11-19T12:30:33;100581.84;;;14.78;100.00
16580;BME280;8402;51.466;6.806;2023-11-19T12:33:07;100581.94;;;14.81;100.00
16580;BME280;8402;51.466;6.806;2023-11-19T12:35:38;100569.09;;;14.82;100.00
16580;BME280;8402;51.466;6.806;2023-11-19T12:38:18;100590.03;;;14.78;100.00
16580;BME280;8402;51.466;6.806;2023-11-19T12:41:07;100587.09;;;14.71;100.00
16580;BME280;8402;51.466;6.806;2023-11-19T12:43:38;100589.38;;;14.69;100.00
16580;BME280;8402;51.466;6.806;2023-11-19T12:46:18;100590.09;;;14.53;100.00
16580;BME280;8402;51.466;6.806;2023-11-19T12:48:50;100592.03;;;14.53;100.00
16580;BME280;8402;51.466;6.806;2023-11-19T12:51:21;100591.00;;;14.45;100.00
16580;BME280;8402;51.466;6.806;2023-11-19T12:53:52;100589.88;;;14.46;100.00
16580;BME280;8402;51.466;6.806;2023-11-19T12:56:27;100585.41;;;14.42;100.00
16580;BME280;8402;51.466;6.806;2023-11-19T12:58:57;100601.69;;;14.38;100.00
16580;BME280;8402;51.466;6.806;2023-11-19T13:01:27;100604.19;;;14.31;100.00
16580;BME280;8402;51.466;6.806;2023-11-19T13:03:57;100604.41;;;14.26;100.00
16580;BME280;8402;51.466;6.806;2023-11-19T13:06:27;100605.13;;;14.23;100.00
16580;BME280;8402;51.466;6.806;2023-11-19T13:08:57;100600.44;;;14.23;100.00
16580;BME280;8402;51.466;6.806;2023-11-19T13:11:35;100601.25;;;14.24;100.00
16580;BME280;8402;51.466;6.806;2023-11-19T13:14:07;100591.69;;;14.30;100.00
16580;BME280;8402;51.466;6.806;2023-11-19T13:16:38;100589.28;;;14.28;100.00
16580;BME280;8402;51.466;6.806;2023-11-19T13:19:10;100600.53;;;14.27;100.00